Weather History for Carson City, NV

Change the Weather History Date:

Monday, January 20, 2014

  Actual Average Record
Temperature  
Mean Temperature 35 °F -  
Max Temperature 55 °F 46 °F 55 °F (2012)
Min Temperature 15 °F 21 °F 10 °F (2013)
Degree Days  
Heating Degree Days 30    
Moisture  
Dew Point 12 °F    
Average Humidity 47    
Maximum Humidity 79    
Minimum Humidity 17    
Precipitation  
Precipitation 0.00 in - - ()
Sea Level Pressure  
Sea Level Pressure 30.34 in    
Wind  
Wind Speed 2 mph (ENE)    
Max Wind Speed 18 mph    
Max Gust Speed 22 mph    
Visibility 10 miles    
Events      
Averages and records for this station are not official NWS values.
T = Trace of Precipitation, MM = Missing Value Source: NWS Daily Summary

Daily Weather History Graph

Daily Weather History Graph

Search for Another Location

Airport:

Trip Planner

Search our weather history database for the weather conditions in past years. The results will help you decide how hot, cold, wet, or windy it might be!

Date:

Astronomy

Jan. 20, 2014 Rise Set
Actual Time 7:14 AM PST 5:06 PM PST
Civil Twilight 6:45 AM PST 5:35 PM PST
Nautical Twilight 6:12 AM PST 6:07 PM PST
Astronomical Twilight 5:40 AM PST 6:39 PM PST
Moon 9:43 PM PST (1/20) 9:18 AM PST (1/20)
Length of Visible Light 10h 49m
Length of Day
9h 51m
Waning Gibbous, 82% of the Moon is Illuminated
Jan 20
Waning Gibbous
Jan 23
Last Quarter
Jan 30
New
Feb 6
First Quarter
Feb 14
Full

Hourly Weather History & Observations

Time (PST) Temp. Windchill Dew Point Humidity Pressure Visibility Wind Dir Wind Speed Gust Speed Precip Events Conditions
12:15 AM 24.8 °F - 12.2 °F 59% 30.28 in 10.0 mi Calm Calm - N/A   Clear
12:35 AM 24.8 °F - 12.2 °F 59% 30.28 in 10.0 mi Calm Calm - N/A   Clear
12:55 AM 24.8 °F 20.5 °F 12.2 °F 59% 30.28 in 10.0 mi NNW 3.5 mph - N/A   Clear
1:15 AM 26.6 °F - 14.0 °F 59% 30.28 in 10.0 mi Calm Calm - N/A   Clear
1:35 AM 23.0 °F - 12.2 °F 63% 30.28 in 10.0 mi Calm Calm - N/A   Clear
1:55 AM 21.2 °F - 12.2 °F 68% 30.29 in 10.0 mi Calm Calm - N/A   Clear
2:15 AM 23.0 °F - 12.2 °F 63% 30.30 in 10.0 mi Calm Calm - N/A   Clear
2:35 AM 21.2 °F - 12.2 °F 68% 30.30 in 10.0 mi Calm Calm - N/A   Clear
2:55 AM 21.2 °F - 10.4 °F 63% 30.31 in 10.0 mi Calm Calm - N/A   Clear
3:15 AM 23.0 °F - 10.4 °F 59% 30.31 in 10.0 mi Calm Calm - N/A   Clear
3:35 AM 21.2 °F 16.4 °F 10.4 °F 63% 30.31 in 10.0 mi NW 3.5 mph - N/A   Clear
3:55 AM 23.0 °F - 12.2 °F 63% 30.31 in 10.0 mi Calm Calm - N/A   Clear
4:15 AM 19.4 °F - 10.4 °F 68% 30.32 in 10.0 mi Calm Calm - N/A   Clear
4:35 AM 19.4 °F - 10.4 °F 68% 30.32 in 10.0 mi Calm Calm - N/A   Clear
4:55 AM 21.2 °F - 10.4 °F 63% 30.32 in 10.0 mi Calm Calm - N/A   Clear
5:15 AM 19.4 °F - 10.4 °F 68% 30.33 in 10.0 mi Calm Calm - N/A   Clear
5:35 AM 19.4 °F - 10.4 °F 68% 30.33 in 10.0 mi Calm Calm - N/A   Clear
5:55 AM 17.6 °F - 10.4 °F 73% 30.34 in 10.0 mi Calm Calm - N/A   Clear
6:15 AM 17.6 °F - 10.4 °F 73% 30.34 in 10.0 mi Calm Calm - N/A   Clear
6:35 AM 17.6 °F - 10.4 °F 73% 30.34 in 10.0 mi Calm Calm - N/A   Clear
6:55 AM 15.8 °F - 10.4 °F 79% 30.35 in 10.0 mi Calm Calm - N/A   Clear
7:15 AM 15.8 °F - 10.4 °F 79% 30.35 in 10.0 mi Calm Calm - N/A   Clear
7:35 AM 15.8 °F - 10.4 °F 79% 30.35 in 10.0 mi Calm Calm - N/A   Clear
7:55 AM 19.4 °F - 10.4 °F 68% 30.36 in 10.0 mi Calm Calm - N/A   Clear
8:15 AM 23.0 °F - 12.2 °F 63% 30.36 in 10.0 mi Calm Calm - N/A   Clear
8:35 AM 24.8 °F - 14.0 °F 64% 30.37 in 10.0 mi Calm Calm - N/A   Clear
8:55 AM 26.6 °F - 14.0 °F 59% 30.37 in 10.0 mi Calm Calm - N/A   Clear
9:15 AM 28.4 °F - 12.2 °F 51% 30.37 in 10.0 mi Calm Calm - N/A   Clear
9:35 AM 32.0 °F - 12.2 °F 44% 30.38 in 10.0 mi Calm Calm - N/A   Clear
9:55 AM 32.0 °F - 10.4 °F 41% 30.39 in 10.0 mi Calm Calm - N/A   Clear
10:15 AM 35.6 °F - 12.2 °F 38% 30.39 in 10.0 mi Calm Calm - N/A   Clear
10:35 AM 37.4 °F 34.9 °F 10.4 °F 33% 30.39 in 10.0 mi SW 3.5 mph - N/A   Clear
10:55 AM 39.2 °F - 10.4 °F 31% 30.38 in 10.0 mi Calm Calm - N/A   Clear
11:15 AM 41.0 °F 39.0 °F 8.6 °F 26% 30.37 in 10.0 mi South 3.5 mph - N/A   Clear
11:35 AM 44.6 °F - 8.6 °F 23% 30.36 in 10.0 mi Calm Calm - N/A   Clear
11:55 AM 46.4 °F - 8.6 °F 22% 30.35 in 10.0 mi Calm Calm - N/A   Clear
12:15 PM 46.4 °F - 8.6 °F 22% 30.33 in 10.0 mi Calm Calm - N/A   Partly Cloudy
12:35 PM 50.0 °F - 8.6 °F 19% 30.32 in 10.0 mi East 3.5 mph - N/A   Scattered Clouds
12:55 PM 53.6 °F - 10.4 °F 18% 30.31 in 10.0 mi East 4.6 mph - N/A   Scattered Clouds
1:15 PM 55.4 °F - 12.2 °F 18% 30.30 in 10.0 mi East 11.5 mph - N/A   Partly Cloudy
1:35 PM 55.4 °F - 10.4 °F 17% 30.29 in 10.0 mi East 11.5 mph - N/A   Partly Cloudy
1:55 PM 55.4 °F - 10.4 °F 17% 30.29 in 10.0 mi East 16.1 mph - N/A   Partly Cloudy
2:15 PM 55.4 °F - 10.4 °F 17% 30.29 in 10.0 mi East 15.0 mph - N/A   Clear
2:35 PM 55.4 °F - 10.4 °F 17% 30.29 in 10.0 mi East 16.1 mph - N/A   Clear
2:55 PM 55.4 °F - 10.4 °F 17% 30.29 in 10.0 mi East 18.4 mph 21.9 mph N/A   Partly Cloudy
3:15 PM 55.4 °F - 12.2 °F 18% 30.29 in 10.0 mi East 18.4 mph - N/A   Partly Cloudy
3:35 PM 53.6 °F - 10.4 °F 18% 30.30 in 10.0 mi East 16.1 mph - N/A   Partly Cloudy
3:55 PM 53.6 °F - 12.2 °F 19% 30.30 in 10.0 mi East 16.1 mph 19.6 mph N/A   Partly Cloudy
4:15 PM 51.8 °F - 14.0 °F 22% 30.31 in 10.0 mi East 11.5 mph - N/A   Clear
4:35 PM 50.0 °F - 14.0 °F 24% 30.31 in 10.0 mi East 11.5 mph - N/A   Clear
4:55 PM 46.4 °F 42.4 °F 14.0 °F 27% 30.32 in 10.0 mi ESE 8.1 mph - N/A   Clear
5:15 PM 44.6 °F 40.7 °F 15.8 °F 31% 30.33 in 10.0 mi East 6.9 mph - N/A   Clear
5:35 PM 41.0 °F 34.7 °F 14.0 °F 33% 30.33 in 10.0 mi East 10.4 mph - N/A   Clear
5:55 PM 39.2 °F 37.0 °F 14.0 °F 36% 30.34 in 10.0 mi ENE 3.5 mph - N/A   Clear
6:15 PM 39.2 °F 35.9 °F 14.0 °F 36% 30.35 in 10.0 mi North 4.6 mph - N/A   Clear
6:35 PM 39.2 °F 37.0 °F 14.0 °F 36% 30.36 in 10.0 mi NE 3.5 mph - N/A   Clear
6:55 PM 37.4 °F 34.9 °F 14.0 °F 38% 30.37 in 10.0 mi NE 3.5 mph - N/A   Clear
7:15 PM 35.6 °F 31.7 °F 14.0 °F 41% 30.38 in 10.0 mi ENE 4.6 mph - N/A   Clear
7:35 PM 32.0 °F - 14.0 °F 48% 30.38 in 10.0 mi Calm Calm - N/A   Clear
7:55 PM 32.0 °F - 14.0 °F 48% 30.39 in 10.0 mi Calm Calm - N/A   Clear
8:15 PM 32.0 °F 28.7 °F 14.0 °F 48% 30.39 in 10.0 mi North 3.5 mph - N/A   Clear
8:35 PM 32.0 °F 27.5 °F 14.0 °F 48% 30.40 in 10.0 mi North 4.6 mph - N/A   Clear
8:55 PM 30.2 °F - 14.0 °F 51% 30.40 in 10.0 mi Calm Calm - N/A   Clear
9:15 PM 30.2 °F - 14.0 °F 51% 30.41 in 10.0 mi Calm Calm - N/A   Clear
9:35 PM 30.2 °F - 14.0 °F 51% 30.41 in 10.0 mi Calm Calm - N/A   Clear
9:55 PM 28.4 °F - 14.0 °F 55% 30.41 in 10.0 mi Calm Calm - N/A   Clear
10:15 PM 28.4 °F - 14.0 °F 55% 30.42 in 10.0 mi Calm Calm - N/A   Clear
10:35 PM 26.6 °F - 14.0 °F 59% 30.42 in 10.0 mi Calm Calm - N/A   Clear
10:55 PM 28.4 °F 24.6 °F 14.0 °F 55% 30.42 in 10.0 mi NNW 3.5 mph - N/A   Clear
11:15 PM 24.8 °F - 14.0 °F 64% 30.43 in 8.0 mi Calm Calm - N/A   Clear
11:35 PM 26.6 °F - 14.0 °F 59% 30.43 in 10.0 mi Calm Calm - N/A   Clear
11:55 PM 26.6 °F - 14.0 °F 59% 30.42 in 10.0 mi Calm Calm - N/A   Clear